sensor_id;sensor_type;location;lat;lon;timestamp;temperature;humidity
46458;DHT22;32155;54.076;12.092;2023-08-07T00:08:58;14.90;99.90
46458;DHT22;32155;54.076;12.092;2023-08-07T00:11:24;14.90;99.90
46458;DHT22;32155;54.076;12.092;2023-08-07T01:01:07;14.40;99.90
46458;DHT22;32155;54.076;12.092;2023-08-07T01:03:36;14.50;99.90
46458;DHT22;32155;54.076;12.092;2023-08-07T01:06:04;14.40;99.90
46458;DHT22;32155;54.076;12.092;2023-08-07T01:11:45;14.40;99.90
46458;DHT22;32155;54.076;12.092;2023-08-07T01:23:13;14.60;99.90
46458;DHT22;32155;54.076;12.092;2023-08-07T01:25:39;14.60;99.90
46458;DHT22;32155;54.076;12.092;2023-08-07T01:28:11;14.70;99.90
46458;DHT22;32155;54.076;12.092;2023-08-07T01:30:40;14.60;99.90
46458;DHT22;32155;54.076;12.092;2023-08-07T02:58:28;15.10;99.90
46458;DHT22;32155;54.076;12.092;2023-08-07T03:00:54;15.10;99.90
46458;DHT22;32155;54.076;12.092;2023-08-07T03:03:28;15.10;99.90
46458;DHT22;32155;54.076;12.092;2023-08-07T03:05:54;15.10;99.90
46458;DHT22;32155;54.076;12.092;2023-08-07T03:08:19;15.10;99.90
46458;DHT22;32155;54.076;12.092;2023-08-07T03:13:31;15.10;99.90
46458;DHT22;32155;54.076;12.092;2023-08-07T03:16:00;15.10;99.90
46458;DHT22;32155;54.076;12.092;2023-08-07T03:18:26;15.20;99.90
46458;DHT22;32155;54.076;12.092;2023-08-07T03:20:52;15.20;99.90
46458;DHT22;32155;54.076;12.092;2023-08-07T03:23:18;15.10;99.90
46458;DHT22;32155;54.076;12.092;2023-08-07T03:25:43;15.20;99.90
46458;DHT22;32155;54.076;12.092;2023-08-07T03:28:11;15.20;99.90
46458;DHT22;32155;54.076;12.092;2023-08-07T03:30:37;15.20;99.90
46458;DHT22;32155;54.076;12.092;2023-08-07T03:38:29;15.30;99.90
46458;DHT22;32155;54.076;12.092;2023-08-07T03:40:54;15.30;99.90
46458;DHT22;32155;54.076;12.092;2023-08-07T03:43:19;15.30;99.90
46458;DHT22;32155;54.076;12.092;2023-08-07T03:45:45;15.30;99.90
46458;DHT22;32155;54.076;12.092;2023-08-07T03:48:11;15.30;99.90
46458;DHT22;32155;54.076;12.092;2023-08-07T03:50:36;15.40;99.90
46458;DHT22;32155;54.076;12.092;2023-08-07T03:53:05;15.40;99.90
46458;DHT22;32155;54.076;12.092;2023-08-07T03:55:34;15.40;99.90
46458;DHT22;32155;54.076;12.092;2023-08-07T03:58:00;15.40;99.90
46458;DHT22;32155;54.076;12.092;2023-08-07T04:00:26;15.40;99.90
46458;DHT22;32155;54.076;12.092;2023-08-07T04:02:51;15.40;99.90
46458;DHT22;32155;54.076;12.092;2023-08-07T04:05:19;15.40;99.90
46458;DHT22;32155;54.076;12.092;2023-08-07T04:07:44;15.40;99.90
46458;DHT22;32155;54.076;12.092;2023-08-07T04:10:10;15.30;99.90
46458;DHT22;32155;54.076;12.092;2023-08-07T04:12:36;15.30;99.90
46458;DHT22;32155;54.076;12.092;2023-08-07T04:15:01;15.40;99.90
46458;DHT22;32155;54.076;12.092;2023-08-07T04:17:29;15.40;99.90
46458;DHT22;32155;54.076;12.092;2023-08-07T04:20:02;15.40;99.90
46458;DHT22;32155;54.076;12.092;2023-08-07T04:22:28;15.50;99.90
46458;DHT22;32155;54.076;12.092;2023-08-07T04:24:54;15.40;99.90
46458;DHT22;32155;54.076;12.092;2023-08-07T04:27:19;15.40;99.90
46458;DHT22;32155;54.076;12.092;2023-08-07T04:29:45;15.40;99.90
46458;DHT22;32155;54.076;12.092;2023-08-07T04:32:13;15.40;99.90
46458;DHT22;32155;54.076;12.092;2023-08-07T04:34:39;15.50;99.90
46458;DHT22;32155;54.076;12.092;2023-08-07T04:37:07;15.50;99.90
46458;DHT22;32155;54.076;12.092;2023-08-07T04:39:32;15.50;99.90
46458;DHT22;32155;54.076;12.092;2023-08-07T04:42:01;15.50;99.90
46458;DHT22;32155;54.076;12.092;2023-08-07T04:44:26;15.50;99.90
46458;DHT22;32155;54.076;12.092;2023-08-07T04:46:54;15.50;99.90
46458;DHT22;32155;54.076;12.092;2023-08-07T04:49:20;15.60;99.90
46458;DHT22;32155;54.076;12.092;2023-08-07T04:51:45;15.50;99.90
46458;DHT22;32155;54.076;12.092;2023-08-07T04:54:15;15.60;99.90
46458;DHT22;32155;54.076;12.092;2023-08-07T04:56:40;15.50;99.90
46458;DHT22;32155;54.076;12.092;2023-08-07T04:59:10;15.60;99.90
46458;DHT22;32155;54.076;12.092;2023-08-07T05:01:36;15.60;99.90
46458;DHT22;32155;54.076;12.092;2023-08-07T05:04:02;15.60;99.90
46458;DHT22;32155;54.076;12.092;2023-08-07T05:06:30;15.70;99.90
46458;DHT22;32155;54.076;12.092;2023-08-07T05:08:56;15.70;99.90
46458;DHT22;32155;54.076;12.092;2023-08-07T05:11:22;15.70;99.90
46458;DHT22;32155;54.076;12.092;2023-08-07T05:13:47;15.70;99.90
46458;DHT22;32155;54.076;12.092;2023-08-07T05:16:13;15.70;99.90
46458;DHT22;32155;54.076;12.092;2023-08-07T05:18:41;15.70;99.90
46458;DHT22;32155;54.076;12.092;2023-08-07T05:21:09;15.70;99.90
46458;DHT22;32155;54.076;12.092;2023-08-07T05:23:35;15.70;99.90
46458;DHT22;32155;54.076;12.092;2023-08-07T05:26:00;15.80;99.90
46458;DHT22;32155;54.076;12.092;2023-08-07T05:28:26;15.80;99.90
46458;DHT22;32155;54.076;12.092;2023-08-07T05:30:51;15.80;99.90
46458;DHT22;32155;54.076;12.092;2023-08-07T05:33:17;15.80;99.90
46458;DHT22;32155;54.076;12.092;2023-08-07T05:35:42;15.80;99.90
46458;DHT22;32155;54.076;12.092;2023-08-07T05:38:08;15.70;99.90
46458;DHT22;32155;54.076;12.092;2023-08-07T05:40:36;15.80;99.90
46458;DHT22;32155;54.076;12.092;2023-08-07T05:43:05;15.80;99.90
46458;DHT22;32155;54.076;12.092;2023-08-07T05:45:31;15.80;99.90
46458;DHT22;32155;54.076;12.092;2023-08-07T05:47:56;15.80;99.90
46458;DHT22;32155;54.076;12.092;2023-08-07T05:50:22;15.80;99.90
46458;DHT22;32155;54.076;12.092;2023-08-07T05:52:50;15.80;99.90
46458;DHT22;32155;54.076;12.092;2023-08-07T05:55:15;15.70;99.90
46458;DHT22;32155;54.076;12.092;2023-08-07T05:57:45;15.80;99.90
46458;DHT22;32155;54.076;12.092;2023-08-07T06:00:11;15.70;99.90
46458;DHT22;32155;54.076;12.092;2023-08-07T06:02:43;15.70;99.90
46458;DHT22;32155;54.076;12.092;2023-08-07T06:05:10;15.70;99.90
46458;DHT22;32155;54.076;12.092;2023-08-07T06:07:38;15.80;99.90
46458;DHT22;32155;54.076;12.092;2023-08-07T06:10:04;15.80;99.90
46458;DHT22;32155;54.076;12.092;2023-08-07T06:12:29;15.80;99.90
46458;DHT22;32155;54.076;12.092;2023-08-07T06:14:55;15.80;99.90
46458;DHT22;32155;54.076;12.092;2023-08-07T06:17:20;15.90;99.90
46458;DHT22;32155;54.076;12.092;2023-08-07T06:19:46;15.90;99.90
46458;DHT22;32155;54.076;12.092;2023-08-07T06:22:14;15.80;99.90
46458;DHT22;32155;54.076;12.092;2023-08-07T06:24:43;15.90;99.90
46458;DHT22;32155;54.076;12.092;2023-08-07T06:27:08;16.00;99.90
46458;DHT22;32155;54.076;12.092;2023-08-07T06:29:36;16.00;99.90
46458;DHT22;32155;54.076;12.092;2023-08-07T06:32:04;15.90;99.90
46458;DHT22;32155;54.076;12.092;2023-08-07T06:34:31;15.90;99.90
46458;DHT22;32155;54.076;12.092;2023-08-07T06:36:56;16.00;99.90
46458;DHT22;32155;54.076;12.092;2023-08-07T06:39:22;16.00;99.90
46458;DHT22;32155;54.076;12.092;2023-08-07T06:41:47;16.10;99.90
46458;DHT22;32155;54.076;12.092;2023-08-07T06:44:13;16.10;99.90
46458;DHT22;32155;54.076;12.092;2023-08-07T06:46:38;16.00;99.90
46458;DHT22;32155;54.076;12.092;2023-08-07T06:49:06;16.10;99.90
46458;DHT22;32155;54.076;12.092;2023-08-07T06:51:31;16.10;99.90
46458;DHT22;32155;54.076;12.092;2023-08-07T06:53:59;16.20;99.90
46458;DHT22;32155;54.076;12.092;2023-08-07T06:56:25;16.20;99.90
46458;DHT22;32155;54.076;12.092;2023-08-07T06:58:50;16.20;99.90
46458;DHT22;32155;54.076;12.092;2023-08-07T07:01:16;16.20;99.90
46458;DHT22;32155;54.076;12.092;2023-08-07T07:03:41;16.20;99.90
46458;DHT22;32155;54.076;12.092;2023-08-07T07:06:12;16.20;99.90
46458;DHT22;32155;54.076;12.092;2023-08-07T07:08:40;16.20;99.90
46458;DHT22;32155;54.076;12.092;2023-08-07T07:11:06;16.20;99.90
46458;DHT22;32155;54.076;12.092;2023-08-07T07:13:32;16.10;99.90
46458;DHT22;32155;54.076;12.092;2023-08-07T07:15:57;16.20;99.90
46458;DHT22;32155;54.076;12.092;2023-08-07T07:18:23;16.30;99.90
46458;DHT22;32155;54.076;12.092;2023-08-07T07:20:55;16.20;99.90
46458;DHT22;32155;54.076;12.092;2023-08-07T07:23:21;16.30;99.90
46458;DHT22;32155;54.076;12.092;2023-08-07T07:25:46;16.30;99.90
46458;DHT22;32155;54.076;12.092;2023-08-07T07:28:12;16.40;99.90
46458;DHT22;32155;54.076;12.092;2023-08-07T07:30:40;16.30;99.90
46458;DHT22;32155;54.076;12.092;2023-08-07T07:33:08;16.40;99.90
46458;DHT22;32155;54.076;12.092;2023-08-07T07:35:37;16.30;99.90
46458;DHT22;32155;54.076;12.092;2023-08-07T07:38:03;16.30;99.90
46458;DHT22;32155;54.076;12.092;2023-08-07T07:40:31;16.30;99.90
46458;DHT22;32155;54.076;12.092;2023-08-07T07:42:57;16.40;99.90
46458;DHT22;32155;54.076;12.092;2023-08-07T07:45:23;16.50;99.90
46458;DHT22;32155;54.076;12.092;2023-08-07T07:47:48;16.70;99.90
46458;DHT22;32155;54.076;12.092;2023-08-07T07:50:14;16.70;99.90
46458;DHT22;32155;54.076;12.092;2023-08-07T07:52:39;16.70;99.90
46458;DHT22;32155;54.076;12.092;2023-08-07T07:55:05;16.70;99.90
46458;DHT22;32155;54.076;12.092;2023-08-07T07:57:31;16.70;99.90
46458;DHT22;32155;54.076;12.092;2023-08-07T07:59:56;16.80;99.90
46458;DHT22;32155;54.076;12.092;2023-08-07T08:02:22;16.80;99.90
46458;DHT22;32155;54.076;12.092;2023-08-07T08:04:50;16.80;99.90
46458;DHT22;32155;54.076;12.092;2023-08-07T08:07:18;16.90;99.90
46458;DHT22;32155;54.076;12.092;2023-08-07T08:09:56;16.90;99.90
46458;DHT22;32155;54.076;12.092;2023-08-07T08:12:23;17.00;99.90
46458;DHT22;32155;54.076;12.092;2023-08-07T08:14:48;17.10;99.90
46458;DHT22;32155;54.076;12.092;2023-08-07T08:17:14;17.20;99.90
46458;DHT22;32155;54.076;12.092;2023-08-07T08:19:39;17.20;99.90
46458;DHT22;32155;54.076;12.092;2023-08-07T08:22:05;17.30;99.90
46458;DHT22;32155;54.076;12.092;2023-08-07T08:24:31;17.40;99.90
46458;DHT22;32155;54.076;12.092;2023-08-07T08:26:57;17.50;99.90
46458;DHT22;32155;54.076;12.092;2023-08-07T08:29:22;17.60;99.90
46458;DHT22;32155;54.076;12.092;2023-08-07T08:31:50;17.50;99.90
46458;DHT22;32155;54.076;12.092;2023-08-07T08:34:19;17.60;99.90
46458;DHT22;32155;54.076;12.092;2023-08-07T08:36:46;17.60;99.90
46458;DHT22;32155;54.076;12.092;2023-08-07T08:39:11;17.70;99.90
46458;DHT22;32155;54.076;12.092;2023-08-07T08:41:40;17.70;99.90
46458;DHT22;32155;54.076;12.092;2023-08-07T08:44:07;17.80;99.90
46458;DHT22;32155;54.076;12.092;2023-08-07T08:46:32;17.80;99.90
46458;DHT22;32155;54.076;12.092;2023-08-07T08:48:58;17.70;99.90
46458;DHT22;32155;54.076;12.092;2023-08-07T08:51:25;17.60;99.90
46458;DHT22;32155;54.076;12.092;2023-08-07T08:53:53;17.50;99.90
46458;DHT22;32155;54.076;12.092;2023-08-07T08:56:22;17.50;99.90
46458;DHT22;32155;54.076;12.092;2023-08-07T08:58:48;17.50;99.90
46458;DHT22;32155;54.076;12.092;2023-08-07T09:01:14;17.40;99.90
46458;DHT22;32155;54.076;12.092;2023-08-07T09:03:40;17.30;99.90
46458;DHT22;32155;54.076;12.092;2023-08-07T09:06:05;17.20;99.90
46458;DHT22;32155;54.076;12.092;2023-08-07T09:08:32;17.20;99.90
46458;DHT22;32155;54.076;12.092;2023-08-07T09:10:58;17.10;99.90
46458;DHT22;32155;54.076;12.092;2023-08-07T09:13:23;17.10;99.90
46458;DHT22;32155;54.076;12.092;2023-08-07T09:15:50;17.10;99.90
46458;DHT22;32155;54.076;12.092;2023-08-07T09:18:16;17.10;99.90
46458;DHT22;32155;54.076;12.092;2023-08-07T09:20:42;17.10;99.90
46458;DHT22;32155;54.076;12.092;2023-08-07T09:23:11;17.20;99.90
46458;DHT22;32155;54.076;12.092;2023-08-07T09:25:36;17.20;99.90
46458;DHT22;32155;54.076;12.092;2023-08-07T09:28:04;17.20;99.90
46458;DHT22;32155;54.076;12.092;2023-08-07T09:30:30;17.30;99.90
46458;DHT22;32155;54.076;12.092;2023-08-07T09:32:57;17.30;99.90
46458;DHT22;32155;54.076;12.092;2023-08-07T09:35:23;17.40;99.90
46458;DHT22;32155;54.076;12.092;2023-08-07T09:37:53;17.40;99.90
46458;DHT22;32155;54.076;12.092;2023-08-07T09:40:19;17.50;99.90
46458;DHT22;32155;54.076;12.092;2023-08-07T09:42:44;17.60;99.90
46458;DHT22;32155;54.076;12.092;2023-08-07T09:45:22;17.70;99.90
46458;DHT22;32155;54.076;12.092;2023-08-07T09:47:56;17.80;99.90
46458;DHT22;32155;54.076;12.092;2023-08-07T09:50:22;17.90;99.90
46458;DHT22;32155;54.076;12.092;2023-08-07T09:52:48;17.80;99.90
46458;DHT22;32155;54.076;12.092;2023-08-07T09:55:13;17.80;99.90
46458;DHT22;32155;54.076;12.092;2023-08-07T09:57:44;17.70;99.90
46458;DHT22;32155;54.076;12.092;2023-08-07T10:00:10;17.80;99.90
46458;DHT22;32155;54.076;12.092;2023-08-07T10:02:37;17.80;99.90
46458;DHT22;32155;54.076;12.092;2023-08-07T10:05:05;17.80;99.90
46458;DHT22;32155;54.076;12.092;2023-08-07T10:07:31;17.80;99.90
46458;DHT22;32155;54.076;12.092;2023-08-07T10:10:00;17.60;99.90
46458;DHT22;32155;54.076;12.092;2023-08-07T10:12:29;17.60;99.90
46458;DHT22;32155;54.076;12.092;2023-08-07T10:14:55;17.70;99.90
46458;DHT22;32155;54.076;12.092;2023-08-07T10:17:21;17.80;99.90
46458;DHT22;32155;54.076;12.092;2023-08-07T10:19:47;17.80;99.90
46458;DHT22;32155;54.076;12.092;2023-08-07T10:22:13;17.70;99.90
46458;DHT22;32155;54.076;12.092;2023-08-07T10:27:09;18.00;99.90
46458;DHT22;32155;54.076;12.092;2023-08-07T10:29:35;18.00;99.90
46458;DHT22;32155;54.076;12.092;2023-08-07T10:32:01;18.10;99.90
46458;DHT22;32155;54.076;12.092;2023-08-07T10:34:33;18.20;99.90
46458;DHT22;32155;54.076;12.092;2023-08-07T10:36:58;18.20;99.90
46458;DHT22;32155;54.076;12.092;2023-08-07T10:39:24;18.20;99.90
46458;DHT22;32155;54.076;12.092;2023-08-07T10:41:55;18.10;99.90
46458;DHT22;32155;54.076;12.092;2023-08-07T10:44:21;18.00;99.90
46458;DHT22;32155;54.076;12.092;2023-08-07T10:46:49;18.10;99.90
46458;DHT22;32155;54.076;12.092;2023-08-07T10:49:35;18.10;99.90
46458;DHT22;32155;54.076;12.092;2023-08-07T10:52:05;18.30;99.90
46458;DHT22;32155;54.076;12.092;2023-08-07T10:54:36;18.40;99.90
46458;DHT22;32155;54.076;12.092;2023-08-07T10:57:09;18.50;99.90
46458;DHT22;32155;54.076;12.092;2023-08-07T10:59:35;18.60;99.90
46458;DHT22;32155;54.076;12.092;2023-08-07T11:02:03;18.80;99.90
46458;DHT22;32155;54.076;12.092;2023-08-07T11:04:45;19.10;99.90
46458;DHT22;32155;54.076;12.092;2023-08-07T11:07:10;19.20;99.90
46458;DHT22;32155;54.076;12.092;2023-08-07T11:09:50;19.30;99.90
46458;DHT22;32155;54.076;12.092;2023-08-07T11:12:15;19.50;99.90
46458;DHT22;32155;54.076;12.092;2023-08-07T11:14:41;19.70;99.90
46458;DHT22;32155;54.076;12.092;2023-08-07T11:17:08;19.90;99.90
46458;DHT22;32155;54.076;12.092;2023-08-07T11:19:36;19.90;99.90
46458;DHT22;32155;54.076;12.092;2023-08-07T11:22:02;20.10;99.90
46458;DHT22;32155;54.076;12.092;2023-08-07T11:24:42;20.80;99.90
46458;DHT22;32155;54.076;12.092;2023-08-07T11:27:08;21.70;99.90
46458;DHT22;32155;54.076;12.092;2023-08-07T11:30:04;21.90;99.90
46458;DHT22;32155;54.076;12.092;2023-08-07T11:32:46;22.10;99.90
46458;DHT22;32155;54.076;12.092;2023-08-07T11:35:14;22.40;99.90
46458;DHT22;32155;54.076;12.092;2023-08-07T11:37:46;22.30;99.90
46458;DHT22;32155;54.076;12.092;2023-08-07T11:40:11;22.20;99.90
46458;DHT22;32155;54.076;12.092;2023-08-07T11:42:39;21.90;99.90
46458;DHT22;32155;54.076;12.092;2023-08-07T11:45:05;21.60;99.90
46458;DHT22;32155;54.076;12.092;2023-08-07T11:47:31;21.20;99.90
46458;DHT22;32155;54.076;12.092;2023-08-07T11:49:56;20.90;99.90
46458;DHT22;32155;54.076;12.092;2023-08-07T11:52:22;20.50;99.90
46458;DHT22;32155;54.076;12.092;2023-08-07T11:54:49;20.60;99.90
46458;DHT22;32155;54.076;12.092;2023-08-07T11:57:16;20.30;99.90
46458;DHT22;32155;54.076;12.092;2023-08-07T11:59:43;20.80;99.90
46458;DHT22;32155;54.076;12.092;2023-08-07T12:02:09;21.60;99.90
46458;DHT22;32155;54.076;12.092;2023-08-07T12:04:35;21.80;99.90
46458;DHT22;32155;54.076;12.092;2023-08-07T12:07:00;22.70;99.90
46458;DHT22;32155;54.076;12.092;2023-08-07T12:09:27;24.00;99.90
46458;DHT22;32155;54.076;12.092;2023-08-07T12:11:56;24.50;99.90
46458;DHT22;32155;54.076;12.092;2023-08-07T12:14:31;24.60;99.90
46458;DHT22;32155;54.076;12.092;2023-08-07T12:19:34;23.40;99.90
46458;DHT22;32155;54.076;12.092;2023-08-07T12:22:00;22.60;99.90
46458;DHT22;32155;54.076;12.092;2023-08-07T12:24:26;22.70;99.90
46458;DHT22;32155;54.076;12.092;2023-08-07T12:26:54;23.10;99.90
46458;DHT22;32155;54.076;12.092;2023-08-07T12:29:19;23.20;99.90
46458;DHT22;32155;54.076;12.092;2023-08-07T12:31:45;24.40;99.90
46458;DHT22;32155;54.076;12.092;2023-08-07T12:34:11;25.10;99.90
46458;DHT22;32155;54.076;12.092;2023-08-07T12:36:41;25.40;99.90
46458;DHT22;32155;54.076;12.092;2023-08-07T12:39:07;25.40;99.90
46458;DHT22;32155;54.076;12.092;2023-08-07T12:41:32;25.20;99.90
46458;DHT22;32155;54.076;12.092;2023-08-07T12:43:58;24.00;99.90
46458;DHT22;32155;54.076;12.092;2023-08-07T12:46:24;23.10;99.90
46458;DHT22;32155;54.076;12.092;2023-08-07T12:48:50;23.40;99.90
46458;DHT22;32155;54.076;12.092;2023-08-07T12:51:16;24.20;99.90
46458;DHT22;32155;54.076;12.092;2023-08-07T12:53:42;24.10;99.90
46458;DHT22;32155;54.076;12.092;2023-08-07T12:56:07;24.40;99.90
46458;DHT22;32155;54.076;12.092;2023-08-07T12:58:33;24.60;99.90
46458;DHT22;32155;54.076;12.092;2023-08-07T13:00:59;24.70;99.90
46458;DHT22;32155;54.076;12.092;2023-08-07T13:03:24;24.50;99.90
46458;DHT22;32155;54.076;12.092;2023-08-07T13:05:50;24.50;99.90
46458;DHT22;32155;54.076;12.092;2023-08-07T13:08:16;24.10;99.90
46458;DHT22;32155;54.076;12.092;2023-08-07T13:10:41;23.40;99.90
46458;DHT22;32155;54.076;12.092;2023-08-07T13:13:07;23.90;99.90
46458;DHT22;32155;54.076;12.092;2023-08-07T13:15:32;23.40;99.90
46458;DHT22;32155;54.076;12.092;2023-08-07T13:17:58;23.40;99.90
46458;DHT22;32155;54.076;12.092;2023-08-07T13:20:25;23.30;99.90
46458;DHT22;32155;54.076;12.092;2023-08-07T13:22:51;23.20;99.90
46458;DHT22;32155;54.076;12.092;2023-08-07T13:25:17;23.00;99.90
46458;DHT22;32155;54.076;12.092;2023-08-07T13:27:42;22.70;99.90
46458;DHT22;32155;54.076;12.092;2023-08-07T13:30:08;22.80;99.90
46458;DHT22;32155;54.076;12.092;2023-08-07T13:32:34;22.60;99.90
46458;DHT22;32155;54.076;12.092;2023-08-07T13:35:00;22.50;99.90
46458;DHT22;32155;54.076;12.092;2023-08-07T13:37:25;22.10;99.90
46458;DHT22;32155;54.076;12.092;2023-08-07T13:39:51;21.90;99.90
46458;DHT22;32155;54.076;12.092;2023-08-07T13:42:18;21.80;99.90
46458;DHT22;32155;54.076;12.092;2023-08-07T13:44:44;21.90;99.90
46458;DHT22;32155;54.076;12.092;2023-08-07T13:47:10;21.90;99.90
46458;DHT22;32155;54.076;12.092;2023-08-07T13:49:38;21.80;99.90
46458;DHT22;32155;54.076;12.092;2023-08-07T13:52:04;22.20;99.90
46458;DHT22;32155;54.076;12.092;2023-08-07T13:54:30;22.70;99.90
46458;DHT22;32155;54.076;12.092;2023-08-07T13:56:59;22.90;99.90
46458;DHT22;32155;54.076;12.092;2023-08-07T13:59:24;23.10;99.90
46458;DHT22;32155;54.076;12.092;2023-08-07T14:01:50;23.10;99.90
46458;DHT22;32155;54.076;12.092;2023-08-07T14:04:17;23.10;99.90
46458;DHT22;32155;54.076;12.092;2023-08-07T14:06:42;22.70;99.90
46458;DHT22;32155;54.076;12.092;2023-08-07T14:09:09;22.80;99.90
46458;DHT22;32155;54.076;12.092;2023-08-07T14:11:35;22.80;99.90
46458;DHT22;32155;54.076;12.092;2023-08-07T14:14:01;22.80;99.90
46458;DHT22;32155;54.076;12.092;2023-08-07T14:16:26;23.20;99.90
46458;DHT22;32155;54.076;12.092;2023-08-07T14:18:54;23.40;99.90
46458;DHT22;32155;54.076;12.092;2023-08-07T14:21:22;23.40;99.90
46458;DHT22;32155;54.076;12.092;2023-08-07T14:35:23;22.80;99.90
46458;DHT22;32155;54.076;12.092;2023-08-07T14:40:56;22.70;99.90
46458;DHT22;32155;54.076;12.092;2023-08-07T14:46:00;22.90;99.90
46458;DHT22;32155;54.076;12.092;2023-08-07T15:45:52;19.80;99.90
46458;DHT22;32155;54.076;12.092;2023-08-07T15:51:22;19.80;99.90
46458;DHT22;32155;54.076;12.092;2023-08-07T15:53:50;19.30;99.90
46458;DHT22;32155;54.076;12.092;2023-08-07T15:56:16;19.00;99.90
46458;DHT22;32155;54.076;12.092;2023-08-07T15:58:41;19.00;99.90
46458;DHT22;32155;54.076;12.092;2023-08-07T16:01:07;18.90;99.90
46458;DHT22;32155;54.076;12.092;2023-08-07T16:03:32;19.00;99.90
46458;DHT22;32155;54.076;12.092;2023-08-07T16:06:01;19.20;99.90
46458;DHT22;32155;54.076;12.092;2023-08-07T16:08:32;19.60;99.90
46458;DHT22;32155;54.076;12.092;2023-08-07T16:10:57;19.40;99.90
46458;DHT22;32155;54.076;12.092;2023-08-07T16:13:23;19.30;99.90
46458;DHT22;32155;54.076;12.092;2023-08-07T16:15:50;19.30;99.90
46458;DHT22;32155;54.076;12.092;2023-08-07T16:18:17;19.20;99.90
46458;DHT22;32155;54.076;12.092;2023-08-07T16:20:45;19.00;99.90
46458;DHT22;32155;54.076;12.092;2023-08-07T16:23:11;18.80;99.90
46458;DHT22;32155;54.076;12.092;2023-08-07T16:25:36;18.70;99.90
46458;DHT22;32155;54.076;12.092;2023-08-07T16:28:11;18.60;99.90
46458;DHT22;32155;54.076;12.092;2023-08-07T16:30:38;18.80;99.90
46458;DHT22;32155;54.076;12.092;2023-08-07T16:33:03;18.80;99.90
46458;DHT22;32155;54.076;12.092;2023-08-07T16:35:31;18.60;99.90
46458;DHT22;32155;54.076;12.092;2023-08-07T16:37:57;18.60;99.90
46458;DHT22;32155;54.076;12.092;2023-08-07T16:43:08;18.30;99.90
46458;DHT22;32155;54.076;12.092;2023-08-07T16:45:45;18.30;99.90
46458;DHT22;32155;54.076;12.092;2023-08-07T16:48:13;18.30;99.90
46458;DHT22;32155;54.076;12.092;2023-08-07T16:50:39;18.30;99.90
46458;DHT22;32155;54.076;12.092;2023-08-07T16:53:04;18.50;99.90
46458;DHT22;32155;54.076;12.092;2023-08-07T16:58:34;18.70;99.90
46458;DHT22;32155;54.076;12.092;2023-08-07T17:01:12;18.50;99.90
46458;DHT22;32155;54.076;12.092;2023-08-07T17:03:47;18.60;99.90
46458;DHT22;32155;54.076;12.092;2023-08-07T17:06:21;18.50;99.90
46458;DHT22;32155;54.076;12.092;2023-08-07T17:08:47;18.60;99.90
46458;DHT22;32155;54.076;12.092;2023-08-07T17:11:18;18.70;99.90
46458;DHT22;32155;54.076;12.092;2023-08-07T17:16:19;18.40;99.90
46458;DHT22;32155;54.076;12.092;2023-08-07T17:18:48;18.30;99.90
46458;DHT22;32155;54.076;12.092;2023-08-07T17:21:41;18.30;99.90
46458;DHT22;32155;54.076;12.092;2023-08-07T17:24:07;18.10;99.90
46458;DHT22;32155;54.076;12.092;2023-08-07T17:26:33;17.90;99.90
46458;DHT22;32155;54.076;12.092;2023-08-07T17:28:58;17.90;99.90
46458;DHT22;32155;54.076;12.092;2023-08-07T17:31:25;17.80;99.90
46458;DHT22;32155;54.076;12.092;2023-08-07T17:33:51;17.80;99.90
46458;DHT22;32155;54.076;12.092;2023-08-07T17:36:17;17.60;99.90
46458;DHT22;32155;54.076;12.092;2023-08-07T17:38:42;17.60;99.90
46458;DHT22;32155;54.076;12.092;2023-08-07T17:41:08;17.60;99.90
46458;DHT22;32155;54.076;12.092;2023-08-07T17:43:36;17.40;99.90
46458;DHT22;32155;54.076;12.092;2023-08-07T17:46:05;17.30;99.90
46458;DHT22;32155;54.076;12.092;2023-08-07T17:48:38;17.20;99.90
46458;DHT22;32155;54.076;12.092;2023-08-07T17:51:10;17.20;99.90
46458;DHT22;32155;54.076;12.092;2023-08-07T17:56:42;16.90;99.90
46458;DHT22;32155;54.076;12.092;2023-08-07T18:01:44;16.70;99.90
46458;DHT22;32155;54.076;12.092;2023-08-07T18:04:13;16.50;99.90
46458;DHT22;32155;54.076;12.092;2023-08-07T18:06:58;16.30;99.90
46458;DHT22;32155;54.076;12.092;2023-08-07T18:09:24;16.20;99.90
46458;DHT22;32155;54.076;12.092;2023-08-07T18:11:49;16.20;99.90
46458;DHT22;32155;54.076;12.092;2023-08-07T18:14:20;16.20;99.90
46458;DHT22;32155;54.076;12.092;2023-08-07T18:16:46;16.20;99.90
46458;DHT22;32155;54.076;12.092;2023-08-07T18:19:20;16.20;99.90
46458;DHT22;32155;54.076;12.092;2023-08-07T18:24:14;16.10;99.90
46458;DHT22;32155;54.076;12.092;2023-08-07T18:29:11;16.00;99.90
46458;DHT22;32155;54.076;12.092;2023-08-07T18:31:36;15.90;99.90
46458;DHT22;32155;54.076;12.092;2023-08-07T18:34:02;15.80;99.90
46458;DHT22;32155;54.076;12.092;2023-08-07T18:36:29;15.80;99.90
46458;DHT22;32155;54.076;12.092;2023-08-07T18:41:24;15.70;99.90
46458;DHT22;32155;54.076;12.092;2023-08-07T18:43:50;15.70;99.90
46458;DHT22;32155;54.076;12.092;2023-08-07T18:46:16;15.60;99.90
46458;DHT22;32155;54.076;12.092;2023-08-07T18:48:42;15.60;99.90
46458;DHT22;32155;54.076;12.092;2023-08-07T18:51:10;15.60;99.90
46458;DHT22;32155;54.076;12.092;2023-08-07T18:53:35;15.70;99.90
46458;DHT22;32155;54.076;12.092;2023-08-07T18:56:01;15.70;99.90
46458;DHT22;32155;54.076;12.092;2023-08-07T18:58:27;15.80;99.90
46458;DHT22;32155;54.076;12.092;2023-08-07T19:00:53;15.70;99.90
46458;DHT22;32155;54.076;12.092;2023-08-07T19:03:18;15.60;99.90
46458;DHT22;32155;54.076;12.092;2023-08-07T19:05:44;15.60;99.90
46458;DHT22;32155;54.076;12.092;2023-08-07T19:08:10;15.40;99.90
46458;DHT22;32155;54.076;12.092;2023-08-07T19:10:36;15.40;99.90
46458;DHT22;32155;54.076;12.092;2023-08-07T19:13:04;15.30;99.90
46458;DHT22;32155;54.076;12.092;2023-08-07T19:15:30;15.30;99.90
46458;DHT22;32155;54.076;12.092;2023-08-07T19:20:31;15.20;99.90
46458;DHT22;32155;54.076;12.092;2023-08-07T19:22:57;15.10;99.90
46458;DHT22;32155;54.076;12.092;2023-08-07T19:25:23;15.10;99.90
46458;DHT22;32155;54.076;12.092;2023-08-07T19:27:49;15.00;99.90
46458;DHT22;32155;54.076;12.092;2023-08-07T19:30:15;15.00;99.90
46458;DHT22;32155;54.076;12.092;2023-08-07T19:32:43;15.00;99.90
46458;DHT22;32155;54.076;12.092;2023-08-07T19:35:11;14.90;99.90
46458;DHT22;32155;54.076;12.092;2023-08-07T19:37:39;15.00;99.90
46458;DHT22;32155;54.076;12.092;2023-08-07T19:40:05;14.90;99.90
46458;DHT22;32155;54.076;12.092;2023-08-07T19:42:35;15.00;99.90